Observations for RENNES ST. JACQUES, France (LFRN)

LFRN 221300Z AUTO 26007KT 9999 BKN026 BKN032 OVC160 08/04 Q1006 TEMPO 28015G25KT 3000 SHRAGS BKN012CB   
LFRN 221230Z AUTO 25009KT 220V280 9999 FEW026 BKN160 09/04 Q1007 TEMPO 28015G25KT 3000 SHRAGS BKN012CB  
LFRN 221200Z AUTO 26009KT 9999 FEW023 OVC150 08/05 Q1007 TEMPO 4000 SHRA BKN020TCU  
LFRN 221130Z AUTO 28008KT 240V310 9999 BKN038 OVC140 08/04 Q1008 TEMPO 4000 SHRA BKN020TCU  
LFRN 221100Z AUTO 29008KT 9999 SCT037 08/04 Q1008 TEMPO 4000 SHRA BKN020TCU 
LFRN 221030Z AUTO 29008KT CAVOK 07/04 Q1008 TEMPO 4000 SHRA BKN020TCU   
LFRN 221000Z AUTO 28006KT CAVOK 05/04 Q1008 TEMPO 4000 SHRA BKN020TCU   
LFRN 220930Z AUTO 28006KT CAVOK 04/04 Q1008 TEMPO 4000 SHRA BKN020TCU   
LFRN 220900Z AUTO 29006KT CAVOK 03/03 Q1008 TEMPO 4000 SHRA BKN020TCU   
LFRN 220830Z AUTO 30006KT CAVOK 04/03 Q1008 TEMPO 4000 SHRA BKN020TCU   
LFRN 220800Z AUTO 29003KT CAVOK 03/03 Q1008 NOSIG   
LFRN 220730Z AUTO 29004KT CAVOK 04/04 Q1008 NOSIG   
LFRN 220700Z AUTO 30006KT 9999 -RADZ FEW039 BKN045 BKN072 05/05 Q1008 NOSIG 
LFRN 220630Z AUTO 29005KT 9999 SCT038 BKN046 OVC066 05/05 Q1008 NOSIG   
LFRN 220600Z AUTO VRB03KT 4900 BR FEW011/// BKN025/// BKN035/// ///TCU 05/05 Q1008 BECMG 9999 NSW SCT030
LFRN 220530Z AUTO 23003KT 7000 SCT010/// BKN027/// BKN048/// ///TCU 05/05 Q1008 BECMG SCT030
LFRN 220500Z AUTO 20005KT 170V270 3100 RA BR FEW006/// BKN028/// BKN034/// ///TCU 05/05 Q1009 BECMG 9999 NSW SCT030 
LFRN 220430Z AUTO 19006KT 4000 -RA BR SCT007/// BKN012/// BKN032/// ///CB 05/05 Q1009 BECMG 27010KT 9999 NSW SCT030 
LFRN 220400Z AUTO 19008KT 4100 RA BR BKN006/// OVC027/// ///CB 04/04 Q1010 TEMPO 2000 RA BKN003 
LFRN 220330Z AUTO 18010KT 4900 -RA BR BKN008/// BKN013/// OVC033/// ///TCU 04/04 Q1010 TEMPO 2000 RA BKN003 
LFRN 220300Z AUTO 20006KT 170V250 5000 -RA BR BKN009/// BKN013/// OVC021/// ///TCU 04/04 Q1011 TEMPO 2000 RA BKN003 
LFRN 220230Z AUTO 18009KT 5000 -RA BR BKN020 OVC026 04/03 Q1012 TEMPO 2000 RA BKN003
LFRN 220200Z AUTO 18012KT 6000 -RA BKN021/// BKN028/// OVC033/// ///TCU 04/03 Q1012 TEMPO 2000 RA BKN003
LFRN 220130Z AUTO 18011KT 9000 OVC038 04/03 Q1013 TEMPO 2000 RA BKN003  
LFRN 220100Z AUTO 18012KT 8000 FEW035 OVC042 04/03 Q1014 TEMPO 2000 RA BKN003   
LFRN 220030Z AUTO 18010KT 7000 BKN041 BKN049 OVC058 04/02 Q1015 TEMPO 2000 RA BKN003
LFRN 220000Z AUTO 19007KT 7000 BKN049 OVC058 03/02 Q1016 TEMPO 2000 RA BKN003   
LFRN 212330Z AUTO 19008KT 6000 FEW048 BKN060 OVC160 03/02 Q1017 TEMPO 2000 RA BKN003
LFRN 212300Z AUTO 18007KT 6000 NSC 02/02 Q1017 TEMPO 3000 RA BKN008 
LFRN 212230Z AUTO 18005KT 6000 NSC 02/01 Q1018 TEMPO 3000 RA BKN008 
LFRN 212200Z AUTO 19004KT 6000 NSC 02/01 Q1018 BECMG RA 
LFRN 212130Z AUTO 19005KT 6000 NSC 02/01 Q1019 BECMG RA 
LFRN 212100Z AUTO 18006KT 6000 NSC 01/01 Q1019 BECMG RA 
LFRN 212030Z AUTO 17006KT 5000 BR NSC 01/00 Q1019 BECMG RA  
LFRN 212000Z AUTO 19004KT 6000 NSC 02/00 Q1020 BECMG RA 
LFRN 211930Z AUTO 18005KT 6000 NSC 02/00 Q1020 BECMG RA 
LFRN 211900Z AUTO 17004KT 6000 NSC 02/01 Q1021 NOSIG
LFRN 211830Z AUTO 18003KT 6000 NSC 02/01 Q1021 NOSIG
LFRN 211800Z AUTO 20002KT 7000 NSC 03/01 Q1022 NOSIG
LFRN 211730Z AUTO 22003KT 8000 NSC 03/00 Q1022 NOSIG
LFRN 211700Z AUTO 24003KT CAVOK 04/01 Q1022 NOSIG   
LFRN 211630Z AUTO 24002KT CAVOK 05/01 Q1022 NOSIG   
LFRN 211600Z AUTO 25002KT CAVOK 05/01 Q1022 NOSIG   
LFRN 211530Z AUTO VRB02KT CAVOK 06/01 Q1022 NOSIG   
LFRN 211500Z AUTO VRB02KT CAVOK 07/00 Q1022 NOSIG   
LFRN 211430Z AUTO VRB03KT CAVOK 07/00 Q1023 NOSIG   
LFRN 211400Z AUTO VRB03KT CAVOK 06/00 Q1023 NOSIG   
LFRN 211330Z AUTO 01003KT 350V050 CAVOK 06/00 Q1023 NOSIG   
LFRN 211300Z AUTO 36005KT 300V090 CAVOK 06/01 Q1024 NOSIG   
LFRN 211230Z AUTO 01007KT 330V030 CAVOK 06/01 Q1024 NOSIG